sensor_id;sensor_type;location;lat;lon;timestamp;temperature;humidity
14411;DHT22;7290;50.854;4.354;2023-05-20T00:00:44;15.40;99.90
14411;DHT22;7290;50.854;4.354;2023-05-20T00:03:10;15.50;99.90
14411;DHT22;7290;50.854;4.354;2023-05-20T00:05:37;15.50;99.90
14411;DHT22;7290;50.854;4.354;2023-05-20T00:08:03;15.50;99.90
14411;DHT22;7290;50.854;4.354;2023-05-20T00:10:32;15.50;99.90
14411;DHT22;7290;50.854;4.354;2023-05-20T00:12:58;15.40;99.90
14411;DHT22;7290;50.854;4.354;2023-05-20T00:15:24;15.50;99.90
14411;DHT22;7290;50.854;4.354;2023-05-20T00:17:50;15.40;99.90
14411;DHT22;7290;50.854;4.354;2023-05-20T00:20:17;15.50;99.90
14411;DHT22;7290;50.854;4.354;2023-05-20T00:22:43;15.30;99.90
14411;DHT22;7290;50.854;4.354;2023-05-20T00:25:09;15.20;99.90
14411;DHT22;7290;50.854;4.354;2023-05-20T00:27:35;15.30;99.90
14411;DHT22;7290;50.854;4.354;2023-05-20T00:30:01;15.30;99.90
14411;DHT22;7290;50.854;4.354;2023-05-20T00:32:27;15.20;99.90
14411;DHT22;7290;50.854;4.354;2023-05-20T00:34:57;15.10;99.90
14411;DHT22;7290;50.854;4.354;2023-05-20T00:37:24;15.20;99.90
14411;DHT22;7290;50.854;4.354;2023-05-20T00:39:50;15.20;99.90
14411;DHT22;7290;50.854;4.354;2023-05-20T00:42:19;15.00;99.90
14411;DHT22;7290;50.854;4.354;2023-05-20T00:44:46;14.90;99.90
14411;DHT22;7290;50.854;4.354;2023-05-20T00:47:12;14.90;99.90
14411;DHT22;7290;50.854;4.354;2023-05-20T00:49:38;14.90;99.90
14411;DHT22;7290;50.854;4.354;2023-05-20T00:52:05;14.80;99.90
14411;DHT22;7290;50.854;4.354;2023-05-20T00:54:34;14.70;99.90
14411;DHT22;7290;50.854;4.354;2023-05-20T00:57:01;14.70;99.90
14411;DHT22;7290;50.854;4.354;2023-05-20T00:59:28;14.60;99.90
14411;DHT22;7290;50.854;4.354;2023-05-20T01:01:55;14.70;99.90
14411;DHT22;7290;50.854;4.354;2023-05-20T01:04:22;14.60;99.90
14411;DHT22;7290;50.854;4.354;2023-05-20T01:06:48;14.70;99.90
14411;DHT22;7290;50.854;4.354;2023-05-20T01:09:15;14.80;99.90
14411;DHT22;7290;50.854;4.354;2023-05-20T01:11:45;14.90;99.90
14411;DHT22;7290;50.854;4.354;2023-05-20T01:14:15;14.80;99.90
14411;DHT22;7290;50.854;4.354;2023-05-20T01:16:43;14.70;99.90
14411;DHT22;7290;50.854;4.354;2023-05-20T01:19:18;14.70;99.90
14411;DHT22;7290;50.854;4.354;2023-05-20T01:21:50;14.60;99.90
14411;DHT22;7290;50.854;4.354;2023-05-20T01:24:18;14.60;99.90
14411;DHT22;7290;50.854;4.354;2023-05-20T01:26:45;14.70;99.90
14411;DHT22;7290;50.854;4.354;2023-05-20T01:29:12;14.80;99.90
14411;DHT22;7290;50.854;4.354;2023-05-20T01:31:43;14.70;99.90
14411;DHT22;7290;50.854;4.354;2023-05-20T01:34:11;14.60;99.90
14411;DHT22;7290;50.854;4.354;2023-05-20T01:36:38;14.50;99.90
14411;DHT22;7290;50.854;4.354;2023-05-20T01:39:04;14.50;99.90
14411;DHT22;7290;50.854;4.354;2023-05-20T01:41:32;14.50;99.90
14411;DHT22;7290;50.854;4.354;2023-05-20T01:44:00;14.40;99.90
14411;DHT22;7290;50.854;4.354;2023-05-20T01:46:27;14.40;99.90
14411;DHT22;7290;50.854;4.354;2023-05-20T01:48:57;14.40;99.90
14411;DHT22;7290;50.854;4.354;2023-05-20T01:51:23;14.30;99.90
14411;DHT22;7290;50.854;4.354;2023-05-20T01:53:49;14.10;99.90
14411;DHT22;7290;50.854;4.354;2023-05-20T01:56:15;14.20;99.90
14411;DHT22;7290;50.854;4.354;2023-05-20T01:58:42;14.20;99.90
14411;DHT22;7290;50.854;4.354;2023-05-20T02:01:08;14.10;99.90
14411;DHT22;7290;50.854;4.354;2023-05-20T02:03:34;14.10;99.90
14411;DHT22;7290;50.854;4.354;2023-05-20T02:06:01;14.00;99.90
14411;DHT22;7290;50.854;4.354;2023-05-20T02:08:27;13.90;99.90
14411;DHT22;7290;50.854;4.354;2023-05-20T02:10:53;13.90;99.90
14411;DHT22;7290;50.854;4.354;2023-05-20T02:13:19;14.10;99.90
14411;DHT22;7290;50.854;4.354;2023-05-20T02:15:46;14.00;99.90
14411;DHT22;7290;50.854;4.354;2023-05-20T02:18:12;14.00;99.90
14411;DHT22;7290;50.854;4.354;2023-05-20T02:20:38;14.00;99.90
14411;DHT22;7290;50.854;4.354;2023-05-20T02:23:05;14.00;99.90
14411;DHT22;7290;50.854;4.354;2023-05-20T02:25:33;13.90;99.90
14411;DHT22;7290;50.854;4.354;2023-05-20T02:27:59;13.90;99.90
14411;DHT22;7290;50.854;4.354;2023-05-20T02:30:26;14.00;99.90
14411;DHT22;7290;50.854;4.354;2023-05-20T02:32:53;14.00;99.90
14411;DHT22;7290;50.854;4.354;2023-05-20T02:35:19;14.00;99.90
14411;DHT22;7290;50.854;4.354;2023-05-20T02:37:45;13.90;99.90
14411;DHT22;7290;50.854;4.354;2023-05-20T02:40:12;13.80;99.90
14411;DHT22;7290;50.854;4.354;2023-05-20T02:42:39;13.90;99.90
14411;DHT22;7290;50.854;4.354;2023-05-20T02:45:07;13.90;99.90
14411;DHT22;7290;50.854;4.354;2023-05-20T02:47:33;13.80;99.90
14411;DHT22;7290;50.854;4.354;2023-05-20T02:50:00;13.70;99.90
14411;DHT22;7290;50.854;4.354;2023-05-20T02:52:26;13.60;99.90
14411;DHT22;7290;50.854;4.354;2023-05-20T02:54:52;13.60;99.90
14411;DHT22;7290;50.854;4.354;2023-05-20T02:57:18;13.60;99.90
14411;DHT22;7290;50.854;4.354;2023-05-20T02:59:44;13.60;99.90
14411;DHT22;7290;50.854;4.354;2023-05-20T03:02:10;13.60;99.90
14411;DHT22;7290;50.854;4.354;2023-05-20T03:04:36;13.60;99.90
14411;DHT22;7290;50.854;4.354;2023-05-20T03:07:04;13.60;99.90
14411;DHT22;7290;50.854;4.354;2023-05-20T03:09:31;13.60;99.90
14411;DHT22;7290;50.854;4.354;2023-05-20T03:11:58;13.60;99.90
14411;DHT22;7290;50.854;4.354;2023-05-20T03:14:24;13.50;99.90
14411;DHT22;7290;50.854;4.354;2023-05-20T03:16:50;13.50;99.90
14411;DHT22;7290;50.854;4.354;2023-05-20T03:19:16;13.50;99.90
14411;DHT22;7290;50.854;4.354;2023-05-20T03:21:42;13.50;99.90
14411;DHT22;7290;50.854;4.354;2023-05-20T03:24:09;13.60;99.90
14411;DHT22;7290;50.854;4.354;2023-05-20T03:26:36;13.60;99.90
14411;DHT22;7290;50.854;4.354;2023-05-20T03:29:07;13.60;99.90
14411;DHT22;7290;50.854;4.354;2023-05-20T03:31:33;13.50;99.90
14411;DHT22;7290;50.854;4.354;2023-05-20T03:34:00;13.50;99.90
14411;DHT22;7290;50.854;4.354;2023-05-20T03:36:26;13.40;99.90
14411;DHT22;7290;50.854;4.354;2023-05-20T03:38:53;13.40;99.90
14411;DHT22;7290;50.854;4.354;2023-05-20T03:41:20;13.50;99.90
14411;DHT22;7290;50.854;4.354;2023-05-20T03:43:46;13.50;99.90
14411;DHT22;7290;50.854;4.354;2023-05-20T03:46:12;13.50;99.90
14411;DHT22;7290;50.854;4.354;2023-05-20T03:48:39;13.40;99.90
14411;DHT22;7290;50.854;4.354;2023-05-20T03:51:06;13.40;99.90
14411;DHT22;7290;50.854;4.354;2023-05-20T03:53:32;13.40;99.90
14411;DHT22;7290;50.854;4.354;2023-05-20T03:55:58;13.30;99.90
14411;DHT22;7290;50.854;4.354;2023-05-20T03:58:25;13.20;99.90
14411;DHT22;7290;50.854;4.354;2023-05-20T04:00:53;13.20;99.90
14411;DHT22;7290;50.854;4.354;2023-05-20T04:03:19;13.30;99.90
14411;DHT22;7290;50.854;4.354;2023-05-20T04:05:47;13.20;99.90
14411;DHT22;7290;50.854;4.354;2023-05-20T04:08:13;13.20;99.90
14411;DHT22;7290;50.854;4.354;2023-05-20T04:10:40;13.30;99.90
14411;DHT22;7290;50.854;4.354;2023-05-20T04:13:07;13.30;99.90
14411;DHT22;7290;50.854;4.354;2023-05-20T04:15:35;13.30;99.90
14411;DHT22;7290;50.854;4.354;2023-05-20T04:18:01;13.30;99.90
14411;DHT22;7290;50.854;4.354;2023-05-20T04:20:27;13.10;99.90
14411;DHT22;7290;50.854;4.354;2023-05-20T04:22:53;13.10;99.90
14411;DHT22;7290;50.854;4.354;2023-05-20T04:25:20;13.10;99.90
14411;DHT22;7290;50.854;4.354;2023-05-20T04:27:46;13.20;99.90
14411;DHT22;7290;50.854;4.354;2023-05-20T04:30:14;13.30;99.90
14411;DHT22;7290;50.854;4.354;2023-05-20T04:32:43;13.50;99.90
14411;DHT22;7290;50.854;4.354;2023-05-20T04:35:10;13.50;99.90
14411;DHT22;7290;50.854;4.354;2023-05-20T04:37:38;13.40;99.90
14411;DHT22;7290;50.854;4.354;2023-05-20T04:40:05;13.40;99.90
14411;DHT22;7290;50.854;4.354;2023-05-20T04:42:31;13.30;99.90
14411;DHT22;7290;50.854;4.354;2023-05-20T04:44:58;13.40;99.90
14411;DHT22;7290;50.854;4.354;2023-05-20T04:47:26;13.40;99.90
14411;DHT22;7290;50.854;4.354;2023-05-20T04:49:53;13.40;99.90
14411;DHT22;7290;50.854;4.354;2023-05-20T04:52:22;13.50;99.90
14411;DHT22;7290;50.854;4.354;2023-05-20T04:54:48;13.60;99.90
14411;DHT22;7290;50.854;4.354;2023-05-20T04:57:16;13.90;99.90
14411;DHT22;7290;50.854;4.354;2023-05-20T04:59:42;13.80;99.90
14411;DHT22;7290;50.854;4.354;2023-05-20T05:02:10;13.60;99.90
14411;DHT22;7290;50.854;4.354;2023-05-20T05:04:36;13.60;99.90
14411;DHT22;7290;50.854;4.354;2023-05-20T05:07:02;13.50;99.90
14411;DHT22;7290;50.854;4.354;2023-05-20T05:09:29;13.70;99.90
14411;DHT22;7290;50.854;4.354;2023-05-20T05:11:56;13.70;99.90
14411;DHT22;7290;50.854;4.354;2023-05-20T05:14:22;13.70;99.90
14411;DHT22;7290;50.854;4.354;2023-05-20T05:16:48;13.60;99.90
14411;DHT22;7290;50.854;4.354;2023-05-20T05:19:15;13.50;99.90
14411;DHT22;7290;50.854;4.354;2023-05-20T05:21:41;13.50;99.90
14411;DHT22;7290;50.854;4.354;2023-05-20T05:24:08;13.50;99.90
14411;DHT22;7290;50.854;4.354;2023-05-20T05:26:34;13.50;99.90
14411;DHT22;7290;50.854;4.354;2023-05-20T05:29:00;13.60;99.90
14411;DHT22;7290;50.854;4.354;2023-05-20T05:31:26;13.80;99.90
14411;DHT22;7290;50.854;4.354;2023-05-20T05:33:52;14.00;99.90
14411;DHT22;7290;50.854;4.354;2023-05-20T05:36:18;14.00;99.90
14411;DHT22;7290;50.854;4.354;2023-05-20T05:38:44;13.90;99.90
14411;DHT22;7290;50.854;4.354;2023-05-20T05:41:11;14.10;99.90
14411;DHT22;7290;50.854;4.354;2023-05-20T05:43:37;14.80;99.90
14411;DHT22;7290;50.854;4.354;2023-05-20T05:46:04;15.50;99.90
14411;DHT22;7290;50.854;4.354;2023-05-20T05:48:30;16.50;99.90
14411;DHT22;7290;50.854;4.354;2023-05-20T05:50:56;17.00;99.90
14411;DHT22;7290;50.854;4.354;2023-05-20T05:53:22;16.80;99.90
14411;DHT22;7290;50.854;4.354;2023-05-20T05:55:48;17.10;99.90
14411;DHT22;7290;50.854;4.354;2023-05-20T05:58:15;17.20;99.90
14411;DHT22;7290;50.854;4.354;2023-05-20T06:00:42;17.20;99.90
14411;DHT22;7290;50.854;4.354;2023-05-20T06:03:08;17.60;99.90
14411;DHT22;7290;50.854;4.354;2023-05-20T06:05:34;18.00;99.90
14411;DHT22;7290;50.854;4.354;2023-05-20T06:08:00;18.70;99.90
14411;DHT22;7290;50.854;4.354;2023-05-20T06:10:26;18.50;99.90
14411;DHT22;7290;50.854;4.354;2023-05-20T06:12:52;18.30;99.90
14411;DHT22;7290;50.854;4.354;2023-05-20T06:15:19;18.70;99.90
14411;DHT22;7290;50.854;4.354;2023-05-20T06:17:45;19.00;99.90
14411;DHT22;7290;50.854;4.354;2023-05-20T06:20:12;18.30;99.90
14411;DHT22;7290;50.854;4.354;2023-05-20T06:22:38;18.60;99.90
14411;DHT22;7290;50.854;4.354;2023-05-20T06:25:05;18.50;99.90
14411;DHT22;7290;50.854;4.354;2023-05-20T06:27:32;18.90;99.90
14411;DHT22;7290;50.854;4.354;2023-05-20T06:29:58;19.30;99.90
14411;DHT22;7290;50.854;4.354;2023-05-20T06:32:25;20.20;99.90
14411;DHT22;7290;50.854;4.354;2023-05-20T06:34:52;20.80;99.90
14411;DHT22;7290;50.854;4.354;2023-05-20T06:37:18;19.90;99.90
14411;DHT22;7290;50.854;4.354;2023-05-20T06:39:44;19.90;99.90
14411;DHT22;7290;50.854;4.354;2023-05-20T06:42:12;20.00;99.90
14411;DHT22;7290;50.854;4.354;2023-05-20T06:44:38;20.10;99.90
14411;DHT22;7290;50.854;4.354;2023-05-20T06:47:04;20.20;99.90
14411;DHT22;7290;50.854;4.354;2023-05-20T06:49:31;20.40;99.90
14411;DHT22;7290;50.854;4.354;2023-05-20T06:51:57;21.10;99.90
14411;DHT22;7290;50.854;4.354;2023-05-20T06:54:23;21.10;99.90
14411;DHT22;7290;50.854;4.354;2023-05-20T06:56:50;21.10;99.90
14411;DHT22;7290;50.854;4.354;2023-05-20T06:59:16;21.30;99.90
14411;DHT22;7290;50.854;4.354;2023-05-20T07:01:43;21.80;99.60
14411;DHT22;7290;50.854;4.354;2023-05-20T07:04:09;21.00;99.90
14411;DHT22;7290;50.854;4.354;2023-05-20T07:06:35;21.00;99.90
14411;DHT22;7290;50.854;4.354;2023-05-20T07:09:02;21.50;99.90
14411;DHT22;7290;50.854;4.354;2023-05-20T07:11:28;21.10;99.90
14411;DHT22;7290;50.854;4.354;2023-05-20T07:13:54;21.30;99.90
14411;DHT22;7290;50.854;4.354;2023-05-20T07:16:20;21.10;99.90
14411;DHT22;7290;50.854;4.354;2023-05-20T07:18:46;21.10;99.90
14411;DHT22;7290;50.854;4.354;2023-05-20T07:21:12;21.50;99.90
14411;DHT22;7290;50.854;4.354;2023-05-20T07:23:39;21.90;99.30
14411;DHT22;7290;50.854;4.354;2023-05-20T07:26:05;21.90;99.00
14411;DHT22;7290;50.854;4.354;2023-05-20T07:28:32;22.10;98.80
14411;DHT22;7290;50.854;4.354;2023-05-20T07:30:59;21.80;98.90
14411;DHT22;7290;50.854;4.354;2023-05-20T07:33:25;22.10;98.90
14411;DHT22;7290;50.854;4.354;2023-05-20T07:35:51;22.00;98.50
14411;DHT22;7290;50.854;4.354;2023-05-20T07:38:18;22.10;98.70
14411;DHT22;7290;50.854;4.354;2023-05-20T07:40:45;22.60;97.90
14411;DHT22;7290;50.854;4.354;2023-05-20T07:43:11;22.20;98.10
14411;DHT22;7290;50.854;4.354;2023-05-20T07:45:38;21.60;98.90
14411;DHT22;7290;50.854;4.354;2023-05-20T07:48:04;21.50;99.00
14411;DHT22;7290;50.854;4.354;2023-05-20T07:50:30;21.90;98.70
14411;DHT22;7290;50.854;4.354;2023-05-20T07:52:57;21.70;98.60
14411;DHT22;7290;50.854;4.354;2023-05-20T07:55:23;21.80;98.80
14411;DHT22;7290;50.854;4.354;2023-05-20T07:57:50;22.40;98.40
14411;DHT22;7290;50.854;4.354;2023-05-20T08:00:16;22.10;98.20
14411;DHT22;7290;50.854;4.354;2023-05-20T08:02:43;22.30;98.20
14411;DHT22;7290;50.854;4.354;2023-05-20T08:05:09;23.10;97.40
14411;DHT22;7290;50.854;4.354;2023-05-20T08:07:36;23.50;96.30
14411;DHT22;7290;50.854;4.354;2023-05-20T08:10:02;22.90;96.70
14411;DHT22;7290;50.854;4.354;2023-05-20T08:12:28;23.00;96.70
14411;DHT22;7290;50.854;4.354;2023-05-20T08:14:55;23.60;96.30
14411;DHT22;7290;50.854;4.354;2023-05-20T08:17:21;24.10;95.20
14411;DHT22;7290;50.854;4.354;2023-05-20T08:19:47;24.60;94.40
14411;DHT22;7290;50.854;4.354;2023-05-20T08:22:14;24.00;94.90
14411;DHT22;7290;50.854;4.354;2023-05-20T08:24:40;23.00;95.70
14411;DHT22;7290;50.854;4.354;2023-05-20T08:27:06;23.60;95.40
14411;DHT22;7290;50.854;4.354;2023-05-20T08:29:33;23.40;95.10
14411;DHT22;7290;50.854;4.354;2023-05-20T08:31:59;24.00;94.60
14411;DHT22;7290;50.854;4.354;2023-05-20T08:34:25;24.50;94.00
14411;DHT22;7290;50.854;4.354;2023-05-20T08:36:52;24.70;93.30
14411;DHT22;7290;50.854;4.354;2023-05-20T08:39:18;24.40;93.60
14411;DHT22;7290;50.854;4.354;2023-05-20T08:41:46;23.40;94.00
14411;DHT22;7290;50.854;4.354;2023-05-20T08:44:12;22.90;94.60
14411;DHT22;7290;50.854;4.354;2023-05-20T08:46:38;23.10;94.80
14411;DHT22;7290;50.854;4.354;2023-05-20T08:49:06;23.20;94.50
14411;DHT22;7290;50.854;4.354;2023-05-20T08:51:32;24.10;93.70
14411;DHT22;7290;50.854;4.354;2023-05-20T08:54:01;24.30;93.30
14411;DHT22;7290;50.854;4.354;2023-05-20T08:56:27;24.80;93.10
14411;DHT22;7290;50.854;4.354;2023-05-20T08:58:54;23.90;93.30
14411;DHT22;7290;50.854;4.354;2023-05-20T09:01:23;24.10;92.90
14411;DHT22;7290;50.854;4.354;2023-05-20T09:03:49;22.80;93.70
14411;DHT22;7290;50.854;4.354;2023-05-20T09:06:17;22.60;94.30
14411;DHT22;7290;50.854;4.354;2023-05-20T09:08:44;22.60;94.40
14411;DHT22;7290;50.854;4.354;2023-05-20T09:11:11;24.00;93.10
14411;DHT22;7290;50.854;4.354;2023-05-20T09:13:37;24.50;92.60
14411;DHT22;7290;50.854;4.354;2023-05-20T09:16:04;25.10;92.20
14411;DHT22;7290;50.854;4.354;2023-05-20T09:18:30;25.60;91.60
14411;DHT22;7290;50.854;4.354;2023-05-20T09:20:57;25.40;91.70
14411;DHT22;7290;50.854;4.354;2023-05-20T09:23:23;25.10;91.80
14411;DHT22;7290;50.854;4.354;2023-05-20T09:25:50;24.10;92.50
14411;DHT22;7290;50.854;4.354;2023-05-20T09:28:18;24.70;92.40
14411;DHT22;7290;50.854;4.354;2023-05-20T09:30:47;23.90;92.80
14411;DHT22;7290;50.854;4.354;2023-05-20T09:33:14;24.20;92.60
14411;DHT22;7290;50.854;4.354;2023-05-20T09:35:40;24.30;92.50
14411;DHT22;7290;50.854;4.354;2023-05-20T09:38:08;25.60;91.10
14411;DHT22;7290;50.854;4.354;2023-05-20T09:40:36;26.10;90.70
14411;DHT22;7290;50.854;4.354;2023-05-20T09:43:04;25.90;90.60
14411;DHT22;7290;50.854;4.354;2023-05-20T09:45:31;26.20;90.40
14411;DHT22;7290;50.854;4.354;2023-05-20T09:47:59;25.60;90.80
14411;DHT22;7290;50.854;4.354;2023-05-20T09:50:27;25.20;90.80
14411;DHT22;7290;50.854;4.354;2023-05-20T09:52:54;25.80;90.20
14411;DHT22;7290;50.854;4.354;2023-05-20T09:55:22;25.20;90.40
14411;DHT22;7290;50.854;4.354;2023-05-20T09:57:49;25.70;90.20
14411;DHT22;7290;50.854;4.354;2023-05-20T10:00:16;25.20;90.50
14411;DHT22;7290;50.854;4.354;2023-05-20T10:02:45;26.20;89.90
14411;DHT22;7290;50.854;4.354;2023-05-20T10:05:16;26.50;89.10
14411;DHT22;7290;50.854;4.354;2023-05-20T10:08:24;26.60;89.40
14411;DHT22;7290;50.854;4.354;2023-05-20T10:10:57;26.80;88.00
14411;DHT22;7290;50.854;4.354;2023-05-20T10:13:48;26.40;89.10
14411;DHT22;7290;50.854;4.354;2023-05-20T10:16:28;25.80;89.30
14411;DHT22;7290;50.854;4.354;2023-05-20T10:19:04;26.50;88.90
14411;DHT22;7290;50.854;4.354;2023-05-20T10:21:33;25.80;88.90
14411;DHT22;7290;50.854;4.354;2023-05-20T10:24:05;26.20;88.50
14411;DHT22;7290;50.854;4.354;2023-05-20T10:26:34;25.80;88.30
14411;DHT22;7290;50.854;4.354;2023-05-20T10:29:13;25.80;89.30
14411;DHT22;7290;50.854;4.354;2023-05-20T10:31:44;25.30;90.40
14411;DHT22;7290;50.854;4.354;2023-05-20T10:34:14;25.10;90.50
14411;DHT22;7290;50.854;4.354;2023-05-20T10:36:44;25.20;90.50
14411;DHT22;7290;50.854;4.354;2023-05-20T10:39:14;25.40;90.50
14411;DHT22;7290;50.854;4.354;2023-05-20T10:41:41;25.60;90.10
14411;DHT22;7290;50.854;4.354;2023-05-20T10:44:08;25.40;90.00
14411;DHT22;7290;50.854;4.354;2023-05-20T10:46:34;25.20;90.40
14411;DHT22;7290;50.854;4.354;2023-05-20T10:49:01;26.10;89.50
14411;DHT22;7290;50.854;4.354;2023-05-20T10:51:28;25.80;90.00
14411;DHT22;7290;50.854;4.354;2023-05-20T10:53:56;25.70;90.00
14411;DHT22;7290;50.854;4.354;2023-05-20T10:56:24;25.30;90.30
14411;DHT22;7290;50.854;4.354;2023-05-20T10:58:51;24.80;90.70
14411;DHT22;7290;50.854;4.354;2023-05-20T11:01:23;25.20;90.90
14411;DHT22;7290;50.854;4.354;2023-05-20T11:03:50;25.90;90.20
14411;DHT22;7290;50.854;4.354;2023-05-20T11:06:17;26.10;89.50
14411;DHT22;7290;50.854;4.354;2023-05-20T11:08:44;25.90;90.00
14411;DHT22;7290;50.854;4.354;2023-05-20T11:11:11;25.80;90.00
14411;DHT22;7290;50.854;4.354;2023-05-20T11:13:38;25.40;90.30
14411;DHT22;7290;50.854;4.354;2023-05-20T11:16:04;25.90;90.30
14411;DHT22;7290;50.854;4.354;2023-05-20T11:18:31;25.80;90.00
14411;DHT22;7290;50.854;4.354;2023-05-20T11:20:58;25.40;90.60
14411;DHT22;7290;50.854;4.354;2023-05-20T11:23:25;25.40;90.70
14411;DHT22;7290;50.854;4.354;2023-05-20T11:25:53;25.30;90.40
14411;DHT22;7290;50.854;4.354;2023-05-20T11:28:20;25.00;90.90
14411;DHT22;7290;50.854;4.354;2023-05-20T11:30:47;25.10;90.50
14411;DHT22;7290;50.854;4.354;2023-05-20T11:33:15;25.80;90.30
14411;DHT22;7290;50.854;4.354;2023-05-20T11:35:45;27.30;87.70
14411;DHT22;7290;50.854;4.354;2023-05-20T11:38:12;27.00;87.60
14411;DHT22;7290;50.854;4.354;2023-05-20T11:40:42;26.80;88.90
14411;DHT22;7290;50.854;4.354;2023-05-20T11:43:10;28.00;86.90
14411;DHT22;7290;50.854;4.354;2023-05-20T11:45:41;28.80;84.20
14411;DHT22;7290;50.854;4.354;2023-05-20T11:48:08;28.20;85.00
14411;DHT22;7290;50.854;4.354;2023-05-20T11:50:35;28.30;85.10
14411;DHT22;7290;50.854;4.354;2023-05-20T11:53:05;27.20;86.40
14411;DHT22;7290;50.854;4.354;2023-05-20T11:55:32;27.30;87.10
14411;DHT22;7290;50.854;4.354;2023-05-20T11:57:59;27.30;87.00
14411;DHT22;7290;50.854;4.354;2023-05-20T12:00:25;27.20;87.10
14411;DHT22;7290;50.854;4.354;2023-05-20T12:02:51;26.00;89.30
14411;DHT22;7290;50.854;4.354;2023-05-20T12:05:17;26.40;89.10
14411;DHT22;7290;50.854;4.354;2023-05-20T12:07:44;27.00;87.80
14411;DHT22;7290;50.854;4.354;2023-05-20T12:10:11;27.00;87.80
14411;DHT22;7290;50.854;4.354;2023-05-20T12:12:39;25.80;89.40
14411;DHT22;7290;50.854;4.354;2023-05-20T12:15:06;25.00;90.60
14411;DHT22;7290;50.854;4.354;2023-05-20T12:17:45;24.00;91.80
14411;DHT22;7290;50.854;4.354;2023-05-20T12:20:13;23.80;92.20
14411;DHT22;7290;50.854;4.354;2023-05-20T12:22:41;23.90;92.70
14411;DHT22;7290;50.854;4.354;2023-05-20T12:25:09;24.90;91.70
14411;DHT22;7290;50.854;4.354;2023-05-20T12:27:36;25.80;90.50
14411;DHT22;7290;50.854;4.354;2023-05-20T12:30:02;25.30;90.90
14411;DHT22;7290;50.854;4.354;2023-05-20T12:32:29;25.30;91.00
14411;DHT22;7290;50.854;4.354;2023-05-20T12:34:55;25.20;90.90
14411;DHT22;7290;50.854;4.354;2023-05-20T12:37:22;24.70;91.50
14411;DHT22;7290;50.854;4.354;2023-05-20T12:39:48;24.20;92.20
14411;DHT22;7290;50.854;4.354;2023-05-20T12:42:14;23.70;93.00
14411;DHT22;7290;50.854;4.354;2023-05-20T12:44:41;23.50;93.30
14411;DHT22;7290;50.854;4.354;2023-05-20T12:47:08;23.50;93.10
14411;DHT22;7290;50.854;4.354;2023-05-20T12:49:34;23.30;93.40
14411;DHT22;7290;50.854;4.354;2023-05-20T12:52:01;23.20;93.60
14411;DHT22;7290;50.854;4.354;2023-05-20T12:54:27;22.90;94.10
14411;DHT22;7290;50.854;4.354;2023-05-20T12:56:54;23.30;93.90
14411;DHT22;7290;50.854;4.354;2023-05-20T12:59:20;23.20;93.80
14411;DHT22;7290;50.854;4.354;2023-05-20T13:01:47;23.40;93.10
14411;DHT22;7290;50.854;4.354;2023-05-20T13:04:14;23.50;92.90
14411;DHT22;7290;50.854;4.354;2023-05-20T13:06:40;23.90;92.80
14411;DHT22;7290;50.854;4.354;2023-05-20T13:09:06;24.00;92.80
14411;DHT22;7290;50.854;4.354;2023-05-20T13:11:33;24.30;92.80
14411;DHT22;7290;50.854;4.354;2023-05-20T13:13:59;24.10;93.00
14411;DHT22;7290;50.854;4.354;2023-05-20T13:16:26;24.10;93.20
14411;DHT22;7290;50.854;4.354;2023-05-20T13:18:53;24.00;93.10
14411;DHT22;7290;50.854;4.354;2023-05-20T13:21:19;24.00;93.20
14411;DHT22;7290;50.854;4.354;2023-05-20T13:23:45;24.10;93.20
14411;DHT22;7290;50.854;4.354;2023-05-20T13:26:12;24.20;93.10
14411;DHT22;7290;50.854;4.354;2023-05-20T13:28:38;24.00;93.30
14411;DHT22;7290;50.854;4.354;2023-05-20T13:31:05;24.10;93.00
14411;DHT22;7290;50.854;4.354;2023-05-20T13:33:31;24.10;93.00
14411;DHT22;7290;50.854;4.354;2023-05-20T13:35:58;23.90;93.20
14411;DHT22;7290;50.854;4.354;2023-05-20T13:38:24;23.90;93.30
14411;DHT22;7290;50.854;4.354;2023-05-20T13:40:51;24.00;93.40
14411;DHT22;7290;50.854;4.354;2023-05-20T13:43:18;24.20;93.20
14411;DHT22;7290;50.854;4.354;2023-05-20T13:45:44;24.30;92.70
14411;DHT22;7290;50.854;4.354;2023-05-20T13:48:10;24.50;92.30
14411;DHT22;7290;50.854;4.354;2023-05-20T13:50:36;24.00;92.80
14411;DHT22;7290;50.854;4.354;2023-05-20T13:53:03;24.20;92.70
14411;DHT22;7290;50.854;4.354;2023-05-20T13:55:29;24.10;92.70
14411;DHT22;7290;50.854;4.354;2023-05-20T13:57:56;23.90;92.50
14411;DHT22;7290;50.854;4.354;2023-05-20T14:00:22;23.80;92.80
14411;DHT22;7290;50.854;4.354;2023-05-20T14:02:48;24.00;93.00
14411;DHT22;7290;50.854;4.354;2023-05-20T14:05:15;23.80;93.20
14411;DHT22;7290;50.854;4.354;2023-05-20T14:07:43;23.70;93.20
14411;DHT22;7290;50.854;4.354;2023-05-20T14:10:10;24.10;92.90
14411;DHT22;7290;50.854;4.354;2023-05-20T14:12:36;24.50;92.50
14411;DHT22;7290;50.854;4.354;2023-05-20T14:15:03;24.30;92.70
14411;DHT22;7290;50.854;4.354;2023-05-20T14:17:29;23.70;93.70
14411;DHT22;7290;50.854;4.354;2023-05-20T14:19:55;23.10;94.30
14411;DHT22;7290;50.854;4.354;2023-05-20T14:22:21;23.10;94.70
14411;DHT22;7290;50.854;4.354;2023-05-20T14:24:48;23.20;94.60
14411;DHT22;7290;50.854;4.354;2023-05-20T14:27:14;23.20;94.50
14411;DHT22;7290;50.854;4.354;2023-05-20T14:29:41;23.00;94.60
14411;DHT22;7290;50.854;4.354;2023-05-20T14:32:07;22.90;94.70
14411;DHT22;7290;50.854;4.354;2023-05-20T14:34:36;23.00;94.80
14411;DHT22;7290;50.854;4.354;2023-05-20T14:37:02;23.20;94.50
14411;DHT22;7290;50.854;4.354;2023-05-20T14:39:34;23.20;94.50
14411;DHT22;7290;50.854;4.354;2023-05-20T14:42:00;23.70;94.20
14411;DHT22;7290;50.854;4.354;2023-05-20T14:44:28;22.90;94.70
14411;DHT22;7290;50.854;4.354;2023-05-20T14:46:54;23.10;95.00
14411;DHT22;7290;50.854;4.354;2023-05-20T14:49:21;23.40;94.80
14411;DHT22;7290;50.854;4.354;2023-05-20T14:51:48;23.20;94.80
14411;DHT22;7290;50.854;4.354;2023-05-20T14:54:14;23.20;95.00
14411;DHT22;7290;50.854;4.354;2023-05-20T14:56:41;23.10;95.10
14411;DHT22;7290;50.854;4.354;2023-05-20T14:59:07;22.90;95.30
14411;DHT22;7290;50.854;4.354;2023-05-20T15:01:35;22.90;95.20
14411;DHT22;7290;50.854;4.354;2023-05-20T15:04:01;23.20;95.00
14411;DHT22;7290;50.854;4.354;2023-05-20T15:06:28;23.20;94.70
14411;DHT22;7290;50.854;4.354;2023-05-20T15:08:55;22.90;95.00
14411;DHT22;7290;50.854;4.354;2023-05-20T15:11:21;22.70;95.40
14411;DHT22;7290;50.854;4.354;2023-05-20T15:13:47;23.00;95.30
14411;DHT22;7290;50.854;4.354;2023-05-20T15:16:15;22.80;95.50
14411;DHT22;7290;50.854;4.354;2023-05-20T15:18:44;22.90;95.50
14411;DHT22;7290;50.854;4.354;2023-05-20T15:21:11;22.90;95.50
14411;DHT22;7290;50.854;4.354;2023-05-20T15:23:37;23.10;95.40
14411;DHT22;7290;50.854;4.354;2023-05-20T15:26:03;23.30;95.10
14411;DHT22;7290;50.854;4.354;2023-05-20T15:28:30;23.50;95.00
14411;DHT22;7290;50.854;4.354;2023-05-20T15:30:56;23.50;95.00
14411;DHT22;7290;50.854;4.354;2023-05-20T15:33:22;23.50;95.00
14411;DHT22;7290;50.854;4.354;2023-05-20T15:35:49;23.10;95.30
14411;DHT22;7290;50.854;4.354;2023-05-20T15:38:16;22.80;95.90
14411;DHT22;7290;50.854;4.354;2023-05-20T15:40:42;22.80;95.80
14411;DHT22;7290;50.854;4.354;2023-05-20T15:43:08;22.90;95.90